sensor_id;sensor_type;location;lat;lon;timestamp;P1;durP1;ratioP1;P2;durP2;ratioP2
43891;SDS011;29555;45.350;5.578;2022-12-15T00:02:01;72.03;;;36.97;;
43891;SDS011;29555;45.350;5.578;2022-12-15T00:04:45;72.80;;;35.63;;
43891;SDS011;29555;45.350;5.578;2022-12-15T00:07:29;66.85;;;34.58;;
43891;SDS011;29555;45.350;5.578;2022-12-15T00:10:14;55.13;;;29.73;;
43891;SDS011;29555;45.350;5.578;2022-12-15T00:12:58;46.17;;;26.00;;
43891;SDS011;29555;45.350;5.578;2022-12-15T00:15:44;40.10;;;22.05;;
43891;SDS011;29555;45.350;5.578;2022-12-15T00:18:29;35.75;;;17.70;;
43891;SDS011;29555;45.350;5.578;2022-12-15T00:21:12;29.27;;;17.35;;
43891;SDS011;29555;45.350;5.578;2022-12-15T00:23:56;46.35;;;21.58;;
43891;SDS011;29555;45.350;5.578;2022-12-15T00:26:40;30.40;;;19.27;;
43891;SDS011;29555;45.350;5.578;2022-12-15T00:29:24;35.03;;;17.80;;
43891;SDS011;29555;45.350;5.578;2022-12-15T00:32:07;33.53;;;16.65;;
43891;SDS011;29555;45.350;5.578;2022-12-15T00:34:51;21.60;;;13.25;;
43891;SDS011;29555;45.350;5.578;2022-12-15T00:37:35;25.50;;;15.57;;
43891;SDS011;29555;45.350;5.578;2022-12-15T00:40:19;21.80;;;14.02;;
43891;SDS011;29555;45.350;5.578;2022-12-15T00:42:44;26.38;;;16.50;;
43891;SDS011;29555;45.350;5.578;2022-12-15T00:45:09;36.72;;;17.00;;
43891;SDS011;29555;45.350;5.578;2022-12-15T00:47:35;57.35;;;26.65;;
43891;SDS011;29555;45.350;5.578;2022-12-15T00:50:00;35.13;;;21.73;;
43891;SDS011;29555;45.350;5.578;2022-12-15T00:52:44;36.05;;;21.73;;
43891;SDS011;29555;45.350;5.578;2022-12-15T00:55:28;34.08;;;23.90;;
43891;SDS011;29555;45.350;5.578;2022-12-15T00:58:13;37.40;;;21.10;;
43891;SDS011;29555;45.350;5.578;2022-12-15T01:00:56;31.77;;;16.88;;
43891;SDS011;29555;45.350;5.578;2022-12-15T01:03:40;33.67;;;17.67;;
43891;SDS011;29555;45.350;5.578;2022-12-15T01:06:24;29.67;;;16.90;;
43891;SDS011;29555;45.350;5.578;2022-12-15T01:09:08;34.25;;;18.20;;
43891;SDS011;29555;45.350;5.578;2022-12-15T01:11:54;31.00;;;18.98;;
43891;SDS011;29555;45.350;5.578;2022-12-15T01:14:39;34.83;;;18.25;;
43891;SDS011;29555;45.350;5.578;2022-12-15T01:17:23;37.13;;;19.77;;
43891;SDS011;29555;45.350;5.578;2022-12-15T01:20:07;48.30;;;22.65;;
43891;SDS011;29555;45.350;5.578;2022-12-15T01:22:41;48.30;;;25.52;;
43891;SDS011;29555;45.350;5.578;2022-12-15T01:25:08;48.72;;;26.83;;
43891;SDS011;29555;45.350;5.578;2022-12-15T01:27:34;49.47;;;25.80;;
43891;SDS011;29555;45.350;5.578;2022-12-15T01:30:00;47.45;;;25.75;;
43891;SDS011;29555;45.350;5.578;2022-12-15T01:32:26;53.13;;;24.60;;
43891;SDS011;29555;45.350;5.578;2022-12-15T01:34:52;38.83;;;21.33;;
43891;SDS011;29555;45.350;5.578;2022-12-15T01:37:18;42.63;;;21.40;;
43891;SDS011;29555;45.350;5.578;2022-12-15T01:39:43;45.08;;;22.15;;
43891;SDS011;29555;45.350;5.578;2022-12-15T01:42:27;44.00;;;25.25;;
43891;SDS011;29555;45.350;5.578;2022-12-15T01:44:53;61.22;;;27.50;;
43891;SDS011;29555;45.350;5.578;2022-12-15T01:48:03;56.42;;;26.33;;
43891;SDS011;29555;45.350;5.578;2022-12-15T01:50:32;57.63;;;28.60;;
43891;SDS011;29555;45.350;5.578;2022-12-15T01:53:04;63.40;;;29.23;;
43891;SDS011;29555;45.350;5.578;2022-12-15T01:55:31;56.30;;;29.25;;
43891;SDS011;29555;45.350;5.578;2022-12-15T01:57:58;52.45;;;27.38;;
43891;SDS011;29555;45.350;5.578;2022-12-15T02:00:26;65.32;;;30.00;;
43891;SDS011;29555;45.350;5.578;2022-12-15T02:02:52;54.90;;;27.17;;
43891;SDS011;29555;45.350;5.578;2022-12-15T02:05:19;48.83;;;28.27;;
43891;SDS011;29555;45.350;5.578;2022-12-15T02:07:44;49.58;;;29.55;;
43891;SDS011;29555;45.350;5.578;2022-12-15T02:10:10;42.60;;;25.73;;
43891;SDS011;29555;45.350;5.578;2022-12-15T02:12:40;43.05;;;24.10;;
43891;SDS011;29555;45.350;5.578;2022-12-15T02:17:55;33.88;;;18.65;;
43891;SDS011;29555;45.350;5.578;2022-12-15T02:23:33;24.33;;;16.52;;
43891;SDS011;29555;45.350;5.578;2022-12-15T02:34:15;17.95;;;9.60;;
43891;SDS011;29555;45.350;5.578;2022-12-15T02:36:46;14.83;;;9.60;;
43891;SDS011;29555;45.350;5.578;2022-12-15T02:39:16;18.67;;;10.00;;
43891;SDS011;29555;45.350;5.578;2022-12-15T02:41:43;14.77;;;9.15;;
43891;SDS011;29555;45.350;5.578;2022-12-15T02:44:53;9.95;;;8.20;;
43891;SDS011;29555;45.350;5.578;2022-12-15T02:50:01;15.88;;;8.48;;
43891;SDS011;29555;45.350;5.578;2022-12-15T03:03:47;12.88;;;9.00;;
43891;SDS011;29555;45.350;5.578;2022-12-15T03:06:15;17.95;;;9.63;;
43891;SDS011;29555;45.350;5.578;2022-12-15T03:08:41;14.98;;;9.40;;
43891;SDS011;29555;45.350;5.578;2022-12-15T03:11:06;16.33;;;9.80;;
43891;SDS011;29555;45.350;5.578;2022-12-15T03:13:31;19.60;;;10.32;;
43891;SDS011;29555;45.350;5.578;2022-12-15T03:15:58;16.85;;;10.55;;
43891;SDS011;29555;45.350;5.578;2022-12-15T03:18:24;21.75;;;9.80;;
43891;SDS011;29555;45.350;5.578;2022-12-15T03:20:49;16.70;;;10.93;;
43891;SDS011;29555;45.350;5.578;2022-12-15T03:23:15;16.60;;;9.68;;
43891;SDS011;29555;45.350;5.578;2022-12-15T03:25:42;21.60;;;13.23;;
43891;SDS011;29555;45.350;5.578;2022-12-15T03:28:09;19.85;;;13.05;;
43891;SDS011;29555;45.350;5.578;2022-12-15T03:30:34;25.40;;;14.75;;
43891;SDS011;29555;45.350;5.578;2022-12-15T03:32:59;27.48;;;15.85;;
43891;SDS011;29555;45.350;5.578;2022-12-15T03:35:25;23.88;;;14.07;;
43891;SDS011;29555;45.350;5.578;2022-12-15T03:37:50;28.35;;;15.50;;
43891;SDS011;29555;45.350;5.578;2022-12-15T03:40:16;39.28;;;16.25;;
43891;SDS011;29555;45.350;5.578;2022-12-15T03:42:43;37.03;;;17.17;;
43891;SDS011;29555;45.350;5.578;2022-12-15T03:45:12;26.83;;;16.98;;
43891;SDS011;29555;45.350;5.578;2022-12-15T03:47:41;24.60;;;16.48;;
43891;SDS011;29555;45.350;5.578;2022-12-15T03:50:08;29.10;;;14.85;;
43891;SDS011;29555;45.350;5.578;2022-12-15T03:52:34;29.55;;;17.27;;
43891;SDS011;29555;45.350;5.578;2022-12-15T03:55:00;24.52;;;13.68;;
43891;SDS011;29555;45.350;5.578;2022-12-15T03:57:26;21.00;;;12.60;;
43891;SDS011;29555;45.350;5.578;2022-12-15T03:59:51;29.05;;;16.02;;
43891;SDS011;29555;45.350;5.578;2022-12-15T04:02:16;23.75;;;14.80;;
43891;SDS011;29555;45.350;5.578;2022-12-15T04:04:42;26.27;;;16.17;;
43891;SDS011;29555;45.350;5.578;2022-12-15T04:07:07;23.42;;;15.68;;
43891;SDS011;29555;45.350;5.578;2022-12-15T04:09:34;21.52;;;15.48;;
43891;SDS011;29555;45.350;5.578;2022-12-15T04:12:00;24.20;;;14.20;;
43891;SDS011;29555;45.350;5.578;2022-12-15T04:14:27;21.67;;;13.65;;
43891;SDS011;29555;45.350;5.578;2022-12-15T04:16:53;17.98;;;12.30;;
43891;SDS011;29555;45.350;5.578;2022-12-15T04:19:19;24.83;;;12.27;;
43891;SDS011;29555;45.350;5.578;2022-12-15T04:22:03;20.58;;;12.43;;
43891;SDS011;29555;45.350;5.578;2022-12-15T04:24:28;21.60;;;10.93;;
43891;SDS011;29555;45.350;5.578;2022-12-15T04:27:12;11.85;;;9.15;;
43891;SDS011;29555;45.350;5.578;2022-12-15T04:29:56;9.93;;;7.60;;
43891;SDS011;29555;45.350;5.578;2022-12-15T04:32:40;12.45;;;7.63;;
43891;SDS011;29555;45.350;5.578;2022-12-15T04:35:24;14.10;;;7.78;;
43891;SDS011;29555;45.350;5.578;2022-12-15T04:38:09;14.80;;;8.32;;
43891;SDS011;29555;45.350;5.578;2022-12-15T04:40:53;11.90;;;8.13;;
43891;SDS011;29555;45.350;5.578;2022-12-15T04:43:37;15.68;;;9.32;;
43891;SDS011;29555;45.350;5.578;2022-12-15T04:46:22;11.07;;;7.55;;
43891;SDS011;29555;45.350;5.578;2022-12-15T04:49:05;15.45;;;9.07;;
43891;SDS011;29555;45.350;5.578;2022-12-15T04:51:49;14.73;;;8.45;;
43891;SDS011;29555;45.350;5.578;2022-12-15T04:54:33;11.82;;;6.65;;
43891;SDS011;29555;45.350;5.578;2022-12-15T04:57:17;11.93;;;8.55;;
43891;SDS011;29555;45.350;5.578;2022-12-15T05:00:01;8.27;;;6.97;;
43891;SDS011;29555;45.350;5.578;2022-12-15T05:02:45;17.15;;;7.97;;
43891;SDS011;29555;45.350;5.578;2022-12-15T05:05:28;11.48;;;8.32;;
43891;SDS011;29555;45.350;5.578;2022-12-15T05:08:12;13.30;;;7.20;;
43891;SDS011;29555;45.350;5.578;2022-12-15T05:10:58;9.60;;;7.15;;
43891;SDS011;29555;45.350;5.578;2022-12-15T05:13:42;11.57;;;6.70;;
43891;SDS011;29555;45.350;5.578;2022-12-15T05:16:26;12.20;;;7.32;;
43891;SDS011;29555;45.350;5.578;2022-12-15T05:19:10;12.43;;;7.60;;
43891;SDS011;29555;45.350;5.578;2022-12-15T05:21:53;7.97;;;6.30;;
43891;SDS011;29555;45.350;5.578;2022-12-15T05:24:37;10.35;;;6.53;;
43891;SDS011;29555;45.350;5.578;2022-12-15T05:27:21;10.02;;;5.80;;
43891;SDS011;29555;45.350;5.578;2022-12-15T05:30:05;8.32;;;5.40;;
43891;SDS011;29555;45.350;5.578;2022-12-15T05:32:49;9.70;;;5.63;;
43891;SDS011;29555;45.350;5.578;2022-12-15T05:35:15;14.88;;;6.53;;
43891;SDS011;29555;45.350;5.578;2022-12-15T05:37:40;11.63;;;6.50;;
43891;SDS011;29555;45.350;5.578;2022-12-15T05:40:05;14.48;;;9.05;;
43891;SDS011;29555;45.350;5.578;2022-12-15T05:42:31;15.23;;;8.93;;
43891;SDS011;29555;45.350;5.578;2022-12-15T05:44:57;10.02;;;6.65;;
43891;SDS011;29555;45.350;5.578;2022-12-15T05:47:22;13.05;;;7.32;;
43891;SDS011;29555;45.350;5.578;2022-12-15T05:49:47;8.20;;;6.07;;
43891;SDS011;29555;45.350;5.578;2022-12-15T05:52:13;17.05;;;6.78;;
43891;SDS011;29555;45.350;5.578;2022-12-15T05:54:39;9.65;;;7.43;;
43891;SDS011;29555;45.350;5.578;2022-12-15T05:57:04;14.68;;;8.27;;
43891;SDS011;29555;45.350;5.578;2022-12-15T05:59:30;11.15;;;8.25;;
43891;SDS011;29555;45.350;5.578;2022-12-15T06:01:56;12.40;;;8.40;;
43891;SDS011;29555;45.350;5.578;2022-12-15T06:04:21;19.25;;;11.20;;
43891;SDS011;29555;45.350;5.578;2022-12-15T06:06:47;18.92;;;10.15;;
43891;SDS011;29555;45.350;5.578;2022-12-15T06:09:12;14.65;;;10.45;;
43891;SDS011;29555;45.350;5.578;2022-12-15T06:11:37;14.77;;;10.77;;
43891;SDS011;29555;45.350;5.578;2022-12-15T06:14:03;13.70;;;9.13;;
43891;SDS011;29555;45.350;5.578;2022-12-15T06:16:28;13.88;;;8.70;;
43891;SDS011;29555;45.350;5.578;2022-12-15T06:18:58;10.95;;;7.90;;
43891;SDS011;29555;45.350;5.578;2022-12-15T06:21:26;11.10;;;7.28;;
43891;SDS011;29555;45.350;5.578;2022-12-15T06:23:53;9.57;;;8.35;;
43891;SDS011;29555;45.350;5.578;2022-12-15T06:26:24;13.82;;;7.90;;
43891;SDS011;29555;45.350;5.578;2022-12-15T06:28:51;19.25;;;8.88;;
43891;SDS011;29555;45.350;5.578;2022-12-15T06:31:19;24.67;;;11.05;;
43891;SDS011;29555;45.350;5.578;2022-12-15T06:33:49;63.30;;;29.30;;
43891;SDS011;29555;45.350;5.578;2022-12-15T06:36:16;106.60;;;50.05;;
43891;SDS011;29555;45.350;5.578;2022-12-15T06:38:43;52.15;;;29.13;;
43891;SDS011;29555;45.350;5.578;2022-12-15T06:41:13;31.83;;;19.98;;
43891;SDS011;29555;45.350;5.578;2022-12-15T06:43:47;30.23;;;14.80;;
43891;SDS011;29555;45.350;5.578;2022-12-15T06:48:40;12.48;;;8.50;;
43891;SDS011;29555;45.350;5.578;2022-12-15T06:51:09;16.23;;;8.18;;
43891;SDS011;29555;45.350;5.578;2022-12-15T06:53:36;12.85;;;7.90;;
43891;SDS011;29555;45.350;5.578;2022-12-15T06:56:06;13.32;;;9.52;;
43891;SDS011;29555;45.350;5.578;2022-12-15T06:58:40;14.43;;;9.02;;
43891;SDS011;29555;45.350;5.578;2022-12-15T07:01:06;16.55;;;9.05;;
43891;SDS011;29555;45.350;5.578;2022-12-15T07:03:33;30.50;;;15.43;;
43891;SDS011;29555;45.350;5.578;2022-12-15T07:06:01;79.80;;;32.97;;
43891;SDS011;29555;45.350;5.578;2022-12-15T07:08:30;54.95;;;26.75;;
43891;SDS011;29555;45.350;5.578;2022-12-15T07:10:56;30.08;;;15.18;;
43891;SDS011;29555;45.350;5.578;2022-12-15T07:13:21;20.58;;;10.82;;
43891;SDS011;29555;45.350;5.578;2022-12-15T07:15:47;37.97;;;15.63;;
43891;SDS011;29555;45.350;5.578;2022-12-15T07:18:14;18.10;;;12.30;;
43891;SDS011;29555;45.350;5.578;2022-12-15T07:20:41;19.33;;;11.10;;
43891;SDS011;29555;45.350;5.578;2022-12-15T07:23:09;17.52;;;10.13;;
43891;SDS011;29555;45.350;5.578;2022-12-15T07:25:36;96.78;;;38.55;;
43891;SDS011;29555;45.350;5.578;2022-12-15T07:28:02;61.63;;;31.98;;
43891;SDS011;29555;45.350;5.578;2022-12-15T07:30:28;67.78;;;25.67;;
43891;SDS011;29555;45.350;5.578;2022-12-15T07:32:55;59.10;;;29.05;;
43891;SDS011;29555;45.350;5.578;2022-12-15T07:35:21;24.45;;;13.48;;
43891;SDS011;29555;45.350;5.578;2022-12-15T07:37:47;111.95;;;49.15;;
43891;SDS011;29555;45.350;5.578;2022-12-15T07:40:13;93.72;;;42.40;;
43891;SDS011;29555;45.350;5.578;2022-12-15T07:42:39;45.50;;;24.20;;
43891;SDS011;29555;45.350;5.578;2022-12-15T07:45:04;36.67;;;20.88;;
43891;SDS011;29555;45.350;5.578;2022-12-15T07:47:31;29.23;;;15.35;;
43891;SDS011;29555;45.350;5.578;2022-12-15T07:49:57;29.88;;;14.35;;
43891;SDS011;29555;45.350;5.578;2022-12-15T07:52:23;71.80;;;36.35;;
43891;SDS011;29555;45.350;5.578;2022-12-15T07:54:48;43.15;;;27.05;;
43891;SDS011;29555;45.350;5.578;2022-12-15T07:57:14;44.08;;;25.52;;
43891;SDS011;29555;45.350;5.578;2022-12-15T07:59:40;27.95;;;16.20;;
43891;SDS011;29555;45.350;5.578;2022-12-15T08:02:05;21.58;;;12.63;;
43891;SDS011;29555;45.350;5.578;2022-12-15T08:04:31;22.27;;;15.38;;
43891;SDS011;29555;45.350;5.578;2022-12-15T08:06:56;19.98;;;14.75;;
43891;SDS011;29555;45.350;5.578;2022-12-15T08:09:22;20.20;;;12.20;;
43891;SDS011;29555;45.350;5.578;2022-12-15T08:11:48;18.75;;;12.18;;
43891;SDS011;29555;45.350;5.578;2022-12-15T08:16:59;12.93;;;8.45;;
43891;SDS011;29555;45.350;5.578;2022-12-15T08:19:24;14.70;;;7.90;;
43891;SDS011;29555;45.350;5.578;2022-12-15T08:21:50;14.80;;;8.32;;
43891;SDS011;29555;45.350;5.578;2022-12-15T08:24:15;23.70;;;10.35;;
43891;SDS011;29555;45.350;5.578;2022-12-15T08:26:42;17.00;;;8.90;;
43891;SDS011;29555;45.350;5.578;2022-12-15T08:29:09;11.10;;;8.82;;
43891;SDS011;29555;45.350;5.578;2022-12-15T08:48:25;49.17;;;22.23;;
43891;SDS011;29555;45.350;5.578;2022-12-15T08:50:50;22.48;;;12.98;;
43891;SDS011;29555;45.350;5.578;2022-12-15T08:53:18;23.65;;;11.88;;
43891;SDS011;29555;45.350;5.578;2022-12-15T08:55:44;19.40;;;12.50;;
43891;SDS011;29555;45.350;5.578;2022-12-15T08:58:09;15.98;;;11.38;;
43891;SDS011;29555;45.350;5.578;2022-12-15T09:00:34;23.70;;;17.10;;
43891;SDS011;29555;45.350;5.578;2022-12-15T09:03:00;23.20;;;16.13;;
43891;SDS011;29555;45.350;5.578;2022-12-15T09:05:25;24.70;;;14.70;;
43891;SDS011;29555;45.350;5.578;2022-12-15T09:07:54;22.00;;;14.45;;
43891;SDS011;29555;45.350;5.578;2022-12-15T09:10:20;39.67;;;25.63;;
43891;SDS011;29555;45.350;5.578;2022-12-15T09:12:46;28.25;;;17.02;;
43891;SDS011;29555;45.350;5.578;2022-12-15T09:15:11;36.97;;;22.27;;
43891;SDS011;29555;45.350;5.578;2022-12-15T09:17:36;22.88;;;14.57;;
43891;SDS011;29555;45.350;5.578;2022-12-15T09:20:02;26.17;;;14.73;;
43891;SDS011;29555;45.350;5.578;2022-12-15T09:22:28;13.00;;;10.35;;
43891;SDS011;29555;45.350;5.578;2022-12-15T09:24:53;12.77;;;8.18;;
43891;SDS011;29555;45.350;5.578;2022-12-15T09:27:19;19.60;;;11.65;;
43891;SDS011;29555;45.350;5.578;2022-12-15T09:29:44;12.88;;;8.65;;
43891;SDS011;29555;45.350;5.578;2022-12-15T09:32:10;13.10;;;8.57;;
43891;SDS011;29555;45.350;5.578;2022-12-15T09:34:38;19.35;;;11.80;;
43891;SDS011;29555;45.350;5.578;2022-12-15T09:37:03;44.60;;;23.83;;
43891;SDS011;29555;45.350;5.578;2022-12-15T09:39:28;47.05;;;24.77;;
43891;SDS011;29555;45.350;5.578;2022-12-15T09:41:55;50.80;;;26.60;;
43891;SDS011;29555;45.350;5.578;2022-12-15T09:44:24;26.13;;;14.85;;
43891;SDS011;29555;45.350;5.578;2022-12-15T09:49:54;25.67;;;16.13;;
43891;SDS011;29555;45.350;5.578;2022-12-15T09:54:56;18.88;;;14.82;;
43891;SDS011;29555;45.350;5.578;2022-12-15T10:07:58;24.80;;;12.90;;
43891;SDS011;29555;45.350;5.578;2022-12-15T10:10:29;22.50;;;12.98;;
43891;SDS011;29555;45.350;5.578;2022-12-15T10:12:59;12.52;;;9.48;;
43891;SDS011;29555;45.350;5.578;2022-12-15T10:15:30;10.10;;;6.05;;
43891;SDS011;29555;45.350;5.578;2022-12-15T10:18:05;8.80;;;5.30;;
43891;SDS011;29555;45.350;5.578;2022-12-15T10:20:43;8.45;;;6.20;;
43891;SDS011;29555;45.350;5.578;2022-12-15T10:23:15;5.30;;;4.47;;
43891;SDS011;29555;45.350;5.578;2022-12-15T10:25:49;70.10;;;29.38;;
43891;SDS011;29555;45.350;5.578;2022-12-15T10:31:00;47.08;;;21.80;;
43891;SDS011;29555;45.350;5.578;2022-12-15T10:33:35;20.77;;;12.07;;
43891;SDS011;29555;45.350;5.578;2022-12-15T10:36:06;26.10;;;14.20;;
43891;SDS011;29555;45.350;5.578;2022-12-15T10:38:35;18.58;;;11.65;;
43891;SDS011;29555;45.350;5.578;2022-12-15T10:41:08;14.20;;;11.43;;
43891;SDS011;29555;45.350;5.578;2022-12-15T10:43:40;17.85;;;12.63;;
43891;SDS011;29555;45.350;5.578;2022-12-15T10:46:11;19.45;;;10.73;;
43891;SDS011;29555;45.350;5.578;2022-12-15T10:48:46;23.70;;;14.13;;
43891;SDS011;29555;45.350;5.578;2022-12-15T10:51:16;26.35;;;13.40;;
43891;SDS011;29555;45.350;5.578;2022-12-15T10:53:46;18.70;;;11.50;;
43891;SDS011;29555;45.350;5.578;2022-12-15T10:56:17;19.63;;;10.50;;
43891;SDS011;29555;45.350;5.578;2022-12-15T10:58:52;15.85;;;11.05;;
43891;SDS011;29555;45.350;5.578;2022-12-15T11:01:21;16.77;;;11.50;;
43891;SDS011;29555;45.350;5.578;2022-12-15T11:03:49;17.00;;;12.10;;
43891;SDS011;29555;45.350;5.578;2022-12-15T11:06:20;18.88;;;11.48;;
43891;SDS011;29555;45.350;5.578;2022-12-15T11:08:46;12.57;;;9.93;;
43891;SDS011;29555;45.350;5.578;2022-12-15T11:11:30;9.73;;;7.82;;
43891;SDS011;29555;45.350;5.578;2022-12-15T11:14:22;31.35;;;20.20;;
43891;SDS011;29555;45.350;5.578;2022-12-15T11:16:52;16.35;;;10.43;;
43891;SDS011;29555;45.350;5.578;2022-12-15T11:19:37;19.77;;;13.50;;
43891;SDS011;29555;45.350;5.578;2022-12-15T11:22:10;18.83;;;14.25;;
43891;SDS011;29555;45.350;5.578;2022-12-15T11:24:49;15.95;;;11.00;;
43891;SDS011;29555;45.350;5.578;2022-12-15T11:27:31;11.75;;;7.30;;
43891;SDS011;29555;45.350;5.578;2022-12-15T11:30:00;17.48;;;11.70;;
43891;SDS011;29555;45.350;5.578;2022-12-15T11:32:47;20.60;;;12.73;;
43891;SDS011;29555;45.350;5.578;2022-12-15T11:35:19;15.30;;;9.93;;
43891;SDS011;29555;45.350;5.578;2022-12-15T11:40:46;10.82;;;8.32;;
43891;SDS011;29555;45.350;5.578;2022-12-15T11:51:24;14.93;;;10.75;;
43891;SDS011;29555;45.350;5.578;2022-12-15T11:56:55;16.10;;;8.57;;
43891;SDS011;29555;45.350;5.578;2022-12-15T11:59:53;13.18;;;7.68;;
43891;SDS011;29555;45.350;5.578;2022-12-15T12:05:13;15.63;;;10.85;;
43891;SDS011;29555;45.350;5.578;2022-12-15T12:16:03;13.85;;;7.00;;
43891;SDS011;29555;45.350;5.578;2022-12-15T12:18:39;14.43;;;8.82;;
43891;SDS011;29555;45.350;5.578;2022-12-15T12:21:14;12.27;;;7.85;;
43891;SDS011;29555;45.350;5.578;2022-12-15T12:29:32;9.98;;;5.32;;
43891;SDS011;29555;45.350;5.578;2022-12-15T12:39:58;9.02;;;4.70;;
43891;SDS011;29555;45.350;5.578;2022-12-15T12:45:24;19.25;;;10.57;;
43891;SDS011;29555;45.350;5.578;2022-12-15T12:47:58;22.13;;;12.07;;
43891;SDS011;29555;45.350;5.578;2022-12-15T12:50:30;18.88;;;9.90;;
43891;SDS011;29555;45.350;5.578;2022-12-15T12:52:58;11.55;;;7.10;;
43891;SDS011;29555;45.350;5.578;2022-12-15T12:55:38;13.88;;;8.25;;
43891;SDS011;29555;45.350;5.578;2022-12-15T13:03:38;9.45;;;6.28;;
43891;SDS011;29555;45.350;5.578;2022-12-15T13:06:26;13.30;;;7.47;;
43891;SDS011;29555;45.350;5.578;2022-12-15T13:11:53;16.33;;;6.57;;
43891;SDS011;29555;45.350;5.578;2022-12-15T13:14:34;10.05;;;7.32;;
43891;SDS011;29555;45.350;5.578;2022-12-15T13:17:17;42.90;;;21.27;;
43891;SDS011;29555;45.350;5.578;2022-12-15T13:24:59;109.43;;;52.72;;
43891;SDS011;29555;45.350;5.578;2022-12-15T13:27:35;35.78;;;22.73;;
43891;SDS011;29555;45.350;5.578;2022-12-15T13:32:36;87.13;;;41.15;;
43891;SDS011;29555;45.350;5.578;2022-12-15T13:37:52;63.40;;;32.28;;
43891;SDS011;29555;45.350;5.578;2022-12-15T13:48:07;12.30;;;10.50;;
43891;SDS011;29555;45.350;5.578;2022-12-15T13:53:47;22.02;;;12.80;;
43891;SDS011;29555;45.350;5.578;2022-12-15T13:58:51;53.40;;;29.50;;
43891;SDS011;29555;45.350;5.578;2022-12-15T14:01:30;26.17;;;13.98;;
43891;SDS011;29555;45.350;5.578;2022-12-15T14:04:06;12.90;;;8.77;;
43891;SDS011;29555;45.350;5.578;2022-12-15T14:06:45;19.77;;;11.20;;
43891;SDS011;29555;45.350;5.578;2022-12-15T14:09:20;32.90;;;19.27;;
43891;SDS011;29555;45.350;5.578;2022-12-15T14:11:49;16.80;;;12.43;;
43891;SDS011;29555;45.350;5.578;2022-12-15T14:14:19;30.98;;;20.67;;
43891;SDS011;29555;45.350;5.578;2022-12-15T14:16:54;21.65;;;14.27;;
43891;SDS011;29555;45.350;5.578;2022-12-15T14:19:22;35.42;;;24.42;;
43891;SDS011;29555;45.350;5.578;2022-12-15T14:22:16;37.28;;;28.90;;
43891;SDS011;29555;45.350;5.578;2022-12-15T14:24:48;32.75;;;20.55;;
43891;SDS011;29555;45.350;5.578;2022-12-15T14:27:24;19.80;;;12.65;;
43891;SDS011;29555;45.350;5.578;2022-12-15T14:32:38;59.65;;;36.88;;
43891;SDS011;29555;45.350;5.578;2022-12-15T14:35:05;19.13;;;14.52;;
43891;SDS011;29555;45.350;5.578;2022-12-15T14:38:03;10.70;;;7.38;;
43891;SDS011;29555;45.350;5.578;2022-12-15T14:40:33;9.68;;;5.90;;
43891;SDS011;29555;45.350;5.578;2022-12-15T14:43:01;6.13;;;4.97;;
43891;SDS011;29555;45.350;5.578;2022-12-15T14:45:27;9.18;;;5.43;;
43891;SDS011;29555;45.350;5.578;2022-12-15T14:48:06;5.95;;;4.43;;
43891;SDS011;29555;45.350;5.578;2022-12-15T14:50:32;33.78;;;19.00;;
43891;SDS011;29555;45.350;5.578;2022-12-15T14:53:00;19.08;;;11.48;;
43891;SDS011;29555;45.350;5.578;2022-12-15T14:55:36;23.20;;;10.75;;
43891;SDS011;29555;45.350;5.578;2022-12-15T15:00:50;19.55;;;13.05;;
43891;SDS011;29555;45.350;5.578;2022-12-15T15:03:18;40.55;;;26.25;;
43891;SDS011;29555;45.350;5.578;2022-12-15T15:05:48;31.08;;;22.25;;
43891;SDS011;29555;45.350;5.578;2022-12-15T15:10:53;18.35;;;9.60;;
43891;SDS011;29555;45.350;5.578;2022-12-15T15:13:24;14.98;;;10.35;;
43891;SDS011;29555;45.350;5.578;2022-12-15T15:15:55;11.18;;;9.13;;
43891;SDS011;29555;45.350;5.578;2022-12-15T15:18:25;19.30;;;11.02;;
43891;SDS011;29555;45.350;5.578;2022-12-15T15:20:56;11.70;;;9.13;;
43891;SDS011;29555;45.350;5.578;2022-12-15T15:23:23;13.47;;;10.37;;
43891;SDS011;29555;45.350;5.578;2022-12-15T15:25:50;19.85;;;12.30;;
43891;SDS011;29555;45.350;5.578;2022-12-15T15:30:53;12.70;;;9.23;;
43891;SDS011;29555;45.350;5.578;2022-12-15T15:33:19;14.57;;;10.13;;
43891;SDS011;29555;45.350;5.578;2022-12-15T15:35:52;15.02;;;10.45;;
43891;SDS011;29555;45.350;5.578;2022-12-15T15:38:23;19.63;;;11.05;;
43891;SDS011;29555;45.350;5.578;2022-12-15T15:40:52;17.58;;;9.98;;
43891;SDS011;29555;45.350;5.578;2022-12-15T15:43:19;20.48;;;12.52;;
43891;SDS011;29555;45.350;5.578;2022-12-15T15:45:45;18.05;;;10.20;;
43891;SDS011;29555;45.350;5.578;2022-12-15T15:48:16;15.85;;;10.20;;
43891;SDS011;29555;45.350;5.578;2022-12-15T15:50:48;14.93;;;9.07;;
43891;SDS011;29555;45.350;5.578;2022-12-15T15:53:14;25.10;;;16.13;;
43891;SDS011;29555;45.350;5.578;2022-12-15T15:55:43;16.02;;;10.20;;
43891;SDS011;29555;45.350;5.578;2022-12-15T15:58:10;18.17;;;9.55;;
43891;SDS011;29555;45.350;5.578;2022-12-15T16:00:37;13.15;;;9.73;;
43891;SDS011;29555;45.350;5.578;2022-12-15T16:03:03;10.25;;;8.50;;
43891;SDS011;29555;45.350;5.578;2022-12-15T16:05:28;13.35;;;9.45;;
43891;SDS011;29555;45.350;5.578;2022-12-15T16:07:54;18.02;;;11.05;;
43891;SDS011;29555;45.350;5.578;2022-12-15T16:10:19;19.35;;;10.93;;
43891;SDS011;29555;45.350;5.578;2022-12-15T16:12:51;20.52;;;9.77;;
43891;SDS011;29555;45.350;5.578;2022-12-15T16:15:22;15.38;;;8.52;;
43891;SDS011;29555;45.350;5.578;2022-12-15T16:17:52;11.77;;;7.97;;
43891;SDS011;29555;45.350;5.578;2022-12-15T16:20:19;15.75;;;8.40;;
43891;SDS011;29555;45.350;5.578;2022-12-15T16:22:47;15.98;;;10.75;;
43891;SDS011;29555;45.350;5.578;2022-12-15T16:25:17;13.82;;;9.32;;
43891;SDS011;29555;45.350;5.578;2022-12-15T16:27:45;19.58;;;9.95;;
43891;SDS011;29555;45.350;5.578;2022-12-15T16:30:15;19.20;;;14.20;;
43891;SDS011;29555;45.350;5.578;2022-12-15T16:32:42;21.83;;;12.27;;
43891;SDS011;29555;45.350;5.578;2022-12-15T16:35:08;17.30;;;13.55;;
43891;SDS011;29555;45.350;5.578;2022-12-15T16:37:34;24.65;;;12.85;;
43891;SDS011;29555;45.350;5.578;2022-12-15T16:40:00;26.60;;;14.85;;
43891;SDS011;29555;45.350;5.578;2022-12-15T16:42:25;13.63;;;10.32;;
43891;SDS011;29555;45.350;5.578;2022-12-15T16:44:51;12.35;;;8.93;;
43891;SDS011;29555;45.350;5.578;2022-12-15T16:47:16;18.15;;;12.93;;
43891;SDS011;29555;45.350;5.578;2022-12-15T16:49:42;18.52;;;13.07;;
43891;SDS011;29555;45.350;5.578;2022-12-15T16:52:18;20.10;;;12.93;;
43891;SDS011;29555;45.350;5.578;2022-12-15T16:54:46;14.45;;;10.85;;
43891;SDS011;29555;45.350;5.578;2022-12-15T16:57:12;14.73;;;10.15;;
43891;SDS011;29555;45.350;5.578;2022-12-15T16:59:42;13.95;;;9.02;;
43891;SDS011;29555;45.350;5.578;2022-12-15T17:02:26;15.23;;;9.07;;
43891;SDS011;29555;45.350;5.578;2022-12-15T17:04:52;10.57;;;8.13;;
43891;SDS011;29555;45.350;5.578;2022-12-15T17:07:19;15.30;;;10.00;;
43891;SDS011;29555;45.350;5.578;2022-12-15T17:09:45;15.25;;;8.73;;
43891;SDS011;29555;45.350;5.578;2022-12-15T17:12:14;11.23;;;7.22;;
43891;SDS011;29555;45.350;5.578;2022-12-15T17:14:41;11.70;;;9.45;;
43891;SDS011;29555;45.350;5.578;2022-12-15T17:17:13;9.57;;;7.43;;
43891;SDS011;29555;45.350;5.578;2022-12-15T17:19:40;12.75;;;8.05;;
43891;SDS011;29555;45.350;5.578;2022-12-15T17:22:05;13.02;;;6.03;;
43891;SDS011;29555;45.350;5.578;2022-12-15T17:24:33;25.65;;;15.93;;